Time;durP1;ratioP1;P1;durP2;ratioP2;P2;SDS_P1;SDS_P2;PMS_P1;PMS_P2;Temp;Humidity;BMP_temperature;BMP_pressure;BME280_temperature;BME280_humidity;BME280_pressure;Samples;Min_cycle;Max_cycle;Signal;HPM_P1;HPM_P2
2023/01/31 00:00:20;;;;;;;26.38;12.55;;;;;;;5.81;67.38;98124.88;4942367;28;20782;-75
2023/01/31 00:02:45;;;;;;;26.20;12.30;;;;;;;5.52;67.61;98140.56;4943009;28;20323;-75
2023/01/31 00:05:10;;;;;;;24.95;12.20;;;;;;;5.79;67.89;98136.38;4924886;28;20034;-75
2023/01/31 00:07:36;;;;;;;26.92;11.60;;;;;;;5.41;67.94;98134.91;4936103;28;20730;-75
2023/01/31 00:10:02;;;;;;;30.55;12.35;;;;;;;5.74;67.64;98129.22;4941630;28;20832;-75
2023/01/31 00:12:27;;;;;;;32.95;13.60;;;;;;;5.77;67.37;98133.19;4943605;28;20127;-75
2023/01/31 00:14:53;;;;;;;26.77;12.23;;;;;;;5.77;67.15;98117.69;4943367;28;20247;-76
2023/01/31 00:17:18;;;;;;;26.70;13.65;;;;;;;5.72;67.21;98120.81;4935629;28;20018;-75
2023/01/31 00:19:44;;;;;;;30.95;12.93;;;;;;;5.74;67.26;98124.03;4947968;28;20739;-76
2023/01/31 00:22:09;;;;;;;29.80;12.63;;;;;;;5.81;67.38;98114.53;4942005;28;20030;-75
2023/01/31 00:24:34;;;;;;;24.02;11.35;;;;;;;5.73;67.15;98119.06;4926575;28;20038;-76
2023/01/31 00:27:00;;;;;;;22.23;11.50;;;;;;;5.53;68.09;98114.53;4936805;28;20034;-76
2023/01/31 00:29:27;;;;;;;27.77;12.20;;;;;;;5.67;67.39;98115.44;4938784;28;20148;-76
2023/01/31 00:31:52;;;;;;;28.63;12.70;;;;;;;5.54;67.95;98102.44;4947355;28;20120;-75
2023/01/31 00:34:17;;;;;;;26.98;13.23;;;;;;;5.65;67.76;98111.44;4943052;28;20903;-76
2023/01/31 00:36:43;;;;;;;25.70;13.40;;;;;;;5.75;67.25;98109.31;4942646;28;20029;-76
2023/01/31 00:39:09;;;;;;;30.20;13.40;;;;;;;5.81;66.79;98098.25;4925177;28;20040;-76
2023/01/31 00:41:36;;;;;;;26.25;12.38;;;;;;;5.76;66.67;98100.59;4938742;28;20096;-75
2023/01/31 00:44:01;;;;;;;26.88;13.25;;;;;;;5.89;67.23;98105.03;4926010;28;20030;-76
2023/01/31 00:46:27;;;;;;;28.52;14.15;;;;;;;5.80;67.09;98102.59;4930133;28;20278;-76
2023/01/31 00:48:53;;;;;;;25.17;12.25;;;;;;;5.73;67.01;98106.13;4930553;28;20711;-76
2023/01/31 00:51:19;;;;;;;25.90;12.48;;;;;;;5.78;66.30;98103.78;4941844;28;20111;-75
2023/01/31 00:53:44;;;;;;;23.92;12.43;;;;;;;5.68;66.52;98104.13;4935021;28;20121;-76
2023/01/31 00:56:12;;;;;;;24.63;12.38;;;;;;;5.55;67.67;98104.03;4937292;28;20038;-76
2023/01/31 00:58:40;;;;;;;29.15;12.30;;;;;;;5.53;67.68;98106.78;4917125;28;20018;-75
2023/01/31 01:01:10;;;;;;;26.23;13.45;;;;;;;5.67;67.29;98105.09;4908301;28;20787;-75
2023/01/31 01:03:38;;;;;;;27.05;13.50;;;;;;;5.69;67.32;98105.72;4944866;28;20029;-76
2023/01/31 01:06:04;;;;;;;26.38;12.25;;;;;;;5.57;67.29;98112.38;4938393;28;20120;-76
2023/01/31 01:08:29;;;;;;;26.30;12.00;;;;;;;5.58;67.23;98119.16;4942585;28;20022;-76
2023/01/31 01:10:55;;;;;;;23.23;12.00;;;;;;;5.56;67.30;98118.53;4945900;28;20887;-76
2023/01/31 01:13:20;;;;;;;25.13;11.98;;;;;;;5.46;67.84;98125.81;4939926;28;20046;-76
2023/01/31 01:15:46;;;;;;;26.52;12.45;;;;;;;5.16;68.66;98126.78;4945708;28;20068;-76
2023/01/31 01:18:11;;;;;;;28.92;12.85;;;;;;;5.17;68.83;98122.41;4945879;28;20030;-75
2023/01/31 01:20:36;;;;;;;26.35;11.32;;;;;;;5.46;68.41;98131.00;4948237;28;20038;-76
2023/01/31 01:23:02;;;;;;;26.90;12.00;;;;;;;5.53;67.96;98131.84;4908080;28;20100;-76
2023/01/31 01:25:27;;;;;;;25.38;12.38;;;;;;;5.55;67.82;98143.59;4947860;28;20120;-76
2023/01/31 01:27:53;;;;;;;26.95;12.30;;;;;;;5.49;67.66;98143.53;4934880;28;20103;-76
2023/01/31 01:30:20;;;;;;;28.95;13.07;;;;;;;5.47;67.33;98133.38;4915959;28;20033;-76
2023/01/31 01:32:45;;;;;;;21.30;10.75;;;;;;;5.56;67.67;98146.97;4951066;28;20032;-76
2023/01/31 01:35:11;;;;;;;25.35;13.00;;;;;;;5.50;67.18;98152.88;4943001;28;20041;-76
2023/01/31 01:37:36;;;;;;;28.38;12.55;;;;;;;5.49;67.94;98148.69;4945987;28;20026;-76
2023/01/31 01:40:02;;;;;;;31.92;11.80;;;;;;;5.57;67.11;98149.38;4905995;28;20116;-76
2023/01/31 01:42:33;;;;;;;25.58;11.70;;;;;;;5.54;67.27;98156.69;4946433;28;20037;-75
2023/01/31 01:44:59;;;;;;;23.98;11.75;;;;;;;5.44;67.76;98150.03;4925629;28;20735;-76
2023/01/31 01:47:43;;;;;;;23.55;11.50;;;;;;;5.66;67.53;98144.84;4950078;28;20190;-76
2023/01/31 01:50:12;;;;;;;27.65;11.88;;;;;;;5.60;67.06;98153.34;4923429;28;20026;-76
2023/01/31 01:52:54;;;;;;;26.63;11.73;;;;;;;5.78;66.93;98139.97;4947221;28;20045;-76
2023/01/31 01:55:34;;;;;;;30.92;12.70;;;;;;;5.72;66.75;98151.81;4947012;28;20029;-76
2023/01/31 01:58:10;;;;;;;27.95;12.82;;;;;;;5.60;66.59;98154.16;4945635;28;20026;-76
2023/01/31 02:00:35;;;;;;;;;;;;;;;5.83;65.96;98155.69;4939250;28;20060;-76
2023/01/31 02:03:03;;;;;;;25.55;10.35;;;;;;;5.59;66.71;98162.88;4928025;28;20014;-76
2023/01/31 02:05:51;;;;;;;30.70;14.13;;;;;;;5.82;66.67;98162.63;4949576;28;20033;-76
2023/01/31 02:08:18;;;;;;;23.02;11.77;;;;;;;5.69;66.34;98166.91;4922508;28;20022;-76
2023/01/31 02:10:46;;;;;;;22.60;10.48;;;;;;;5.67;66.66;98163.72;4929223;28;20270;-76
2023/01/31 02:13:12;;;;;;;28.33;12.73;;;;;;;5.59;66.59;98162.09;4923143;28;20040;-76
2023/01/31 02:15:38;;;;;;;25.63;12.50;;;;;;;5.62;66.35;98159.09;4950476;28;20021;-76
2023/01/31 02:18:04;;;;;;;27.65;12.38;;;;;;;5.65;66.13;98148.41;4949684;28;20022;-76
2023/01/31 02:20:44;;;;;;;26.40;12.60;;;;;;;5.72;66.55;98154.41;4934236;28;20120;-76
2023/01/31 02:23:35;;;;;;;25.27;10.88;;;;;;;5.74;65.98;98149.88;4947059;28;20799;-76
2023/01/31 02:26:19;;;;;;;24.42;11.55;;;;;;;5.57;67.04;98157.09;4952890;28;20026;-76
2023/01/31 02:29:17;;;;;;;24.90;11.15;;;;;;;5.60;66.56;98153.34;4950717;28;20041;-76
2023/01/31 02:31:48;;;;;;;21.10;11.10;;;;;;;5.70;66.80;98147.84;4943811;28;20747;-76
2023/01/31 02:34:19;;;;;;;26.98;12.00;;;;;;;5.42;67.16;98151.22;4952284;28;20095;-76
2023/01/31 02:37:23;;;;;;;23.27;11.90;;;;;;;5.68;65.60;98142.88;4939885;28;20034;-76
2023/01/31 02:39:58;;;;;;;25.52;10.82;;;;;;;5.66;66.40;98142.25;4943162;28;20063;-76
2023/01/31 02:42:36;;;;;;;25.70;12.93;;;;;;;5.60;66.35;98137.84;4929896;28;20091;-76
2023/01/31 02:45:04;;;;;;;29.27;11.73;;;;;;;5.51;67.08;98144.13;4951623;28;20692;-77
2023/01/31 02:47:33;;;;;;;27.85;11.27;;;;;;;5.33;67.38;98135.06;4934251;28;20113;-76
2023/01/31 02:50:04;;;;;;;29.23;12.23;;;;;;;5.21;67.63;98131.41;4923972;28;20782;-75
2023/01/31 02:53:04;;;;;;;29.30;11.18;;;;;;;5.59;66.95;98125.94;4927060;28;20708;-76
2023/01/31 02:58:35;;;;;;;28.15;11.35;;;;;;;5.58;66.70;98124.31;4938371;28;20045;-77
2023/01/31 03:01:07;;;;;;;25.80;11.70;;;;;;;5.63;66.30;98127.13;4949842;28;20040;-76
2023/01/31 03:03:37;;;;;;;23.33;9.88;;;;;;;5.71;67.03;98134.75;4920770;28;20057;-77
2023/01/31 03:06:34;;;;;;;28.05;11.27;;;;;;;5.78;66.50;98125.25;4947289;28;20033;-76
2023/01/31 03:09:03;;;;;;;26.73;11.15;;;;;;;5.63;66.47;98127.13;4940982;28;20921;-76
2023/01/31 03:11:42;;;;;;;25.45;10.02;;;;;;;5.63;66.85;98124.56;4921663;28;20047;-76
2023/01/31 03:14:26;;;;;;;23.05;10.88;;;;;;;5.72;65.99;98133.75;4930397;28;20848;-76
2023/01/31 03:20:05;;;;;;;26.35;12.63;;;;;;;5.80;65.63;98128.44;4939525;28;20029;-76
2023/01/31 03:22:38;;;;;;;23.67;11.15;;;;;;;5.60;66.74;98124.91;4945891;28;20300;-76
2023/01/31 03:25:04;;;;;;;24.45;10.55;;;;;;;5.48;66.41;98127.22;4927391;28;20045;-76
2023/01/31 03:27:30;;;;;;;28.95;11.55;;;;;;;5.59;66.27;98137.06;4957096;28;20026;-76
2023/01/31 03:30:00;;;;;;;27.40;10.55;;;;;;;5.49;66.75;98125.47;4949682;28;20048;-76
2023/01/31 03:32:30;;;;;;;21.70;11.05;;;;;;;5.51;66.84;98133.81;4931480;28;20810;-75
2023/01/31 03:34:55;;;;;;;24.60;10.48;;;;;;;5.56;66.72;98134.84;4949879;28;20874;-76
2023/01/31 03:37:29;;;;;;;22.85;10.57;;;;;;;5.56;66.24;98144.38;4916456;28;20061;-76
2023/01/31 03:40:01;;;;;;;27.95;11.95;;;;;;;5.58;66.27;98140.59;4945644;28;20044;-76
2023/01/31 03:42:32;;;;;;;22.77;10.35;;;;;;;5.54;65.80;98136.03;4909990;28;20071;-76
2023/01/31 03:45:01;;;;;;;25.98;10.95;;;;;;;5.39;67.23;98142.06;4951875;28;20041;-76
2023/01/31 03:47:37;;;;;;;26.70;10.90;;;;;;;5.47;66.47;98140.31;4949907;28;20044;-76
2023/01/31 03:50:11;;;;;;;23.13;10.93;;;;;;;5.47;65.96;98142.91;4934151;28;20036;-76
2023/01/31 03:52:41;;;;;;;24.65;9.98;;;;;;;5.46;66.48;98141.31;4933217;28;20303;-76
2023/01/31 03:55:11;;;;;;;27.95;10.15;;;;;;;5.45;66.15;98145.69;4930755;28;20026;-76
2023/01/31 03:57:39;;;;;;;22.10;10.07;;;;;;;5.34;66.66;98149.56;4946476;28;20025;-76
2023/01/31 04:00:08;;;;;;;24.77;10.00;;;;;;;5.27;65.84;98140.97;4943850;28;20153;-76
2023/01/31 04:02:35;;;;;;;20.80;9.88;;;;;;;5.30;65.93;98145.78;4946765;28;20021;-76
2023/01/31 04:05:08;;;;;;;23.05;11.02;;;;;;;5.31;66.51;98139.59;4924650;28;20026;-76
2023/01/31 04:07:35;;;;;;;25.20;10.32;;;;;;;5.25;66.55;98141.16;4946582;28;20347;-76
2023/01/31 04:10:00;;;;;;;20.20;9.90;;;;;;;5.25;66.81;98146.31;4932003;28;20776;-76
2023/01/31 04:12:26;;;;;;;24.85;10.93;;;;;;;5.27;66.22;98148.72;4943962;28;20053;-76
2023/01/31 04:14:51;;;;;;;23.35;10.55;;;;;;;5.25;66.52;98141.16;4944944;28;20041;-76
2023/01/31 04:17:17;;;;;;;21.98;10.93;;;;;;;5.19;66.72;98141.09;4919578;28;20051;-79
2023/01/31 04:19:42;;;;;;;24.58;11.13;;;;;;;5.08;67.42;98139.81;4932228;28;20032;-76
2023/01/31 04:22:07;;;;;;;24.30;10.90;;;;;;;5.15;66.93;98145.84;4940072;28;20084;-76
2023/01/31 04:24:33;;;;;;;24.50;10.23;;;;;;;5.12;67.15;98141.03;4920288;28;20029;-77
2023/01/31 04:26:58;;;;;;;24.08;10.55;;;;;;;4.97;67.22;98142.88;4937019;28;20529;-77
2023/01/31 04:29:23;;;;;;;27.75;11.57;;;;;;;4.99;66.24;98143.50;4923491;28;20165;-76
2023/01/31 04:31:49;;;;;;;22.35;11.27;;;;;;;5.14;67.26;98143.44;4944862;28;20626;-77
2023/01/31 04:34:14;;;;;;;22.10;10.70;;;;;;;5.12;66.63;98140.25;4935661;28;20193;-76
2023/01/31 04:36:39;;;;;;;22.23;9.52;;;;;;;5.06;67.05;98140.00;4913585;28;20787;-77
2023/01/31 04:39:05;;;;;;;26.25;11.38;;;;;;;5.00;66.76;98137.34;4927273;28;20192;-77
2023/01/31 04:41:30;;;;;;;20.10;9.23;;;;;;;5.05;67.29;98133.25;4935543;28;20211;-76
2023/01/31 04:43:55;;;;;;;22.98;10.52;;;;;;;4.83;67.51;98137.59;4931536;28;20717;-76
2023/01/31 04:46:21;;;;;;;25.42;10.52;;;;;;;4.71;68.43;98135.69;4923141;28;20667;-77
2023/01/31 04:48:46;;;;;;;23.67;10.98;;;;;;;4.75;67.74;98147.25;4935048;28;20244;-76
2023/01/31 04:51:12;;;;;;;21.08;10.00;;;;;;;4.97;67.49;98137.72;4918255;28;20265;-76
2023/01/31 04:53:37;;;;;;;25.73;10.95;;;;;;;4.76;67.27;98141.09;4926762;28;20195;-76
2023/01/31 04:56:03;;;;;;;23.63;10.20;;;;;;;4.91;67.56;98128.94;4945954;28;20398;-77
2023/01/31 04:58:29;;;;;;;21.52;9.77;;;;;;;4.86;67.46;98133.84;4943119;28;20238;-76
2023/01/31 05:00:54;;;;;;;22.85;8.85;;;;;;;4.94;66.46;98123.41;4923737;28;20283;-76
2023/01/31 05:03:20;;;;;;;22.50;9.65;;;;;;;4.94;67.23;98132.94;4905888;28;20441;-77
2023/01/31 05:05:49;;;;;;;22.45;9.43;;;;;;;4.69;68.06;98133.28;4913370;28;20277;-76
2023/01/31 05:08:14;;;;;;;25.60;8.93;;;;;;;4.80;67.22;98137.97;4909577;28;20207;-76
2023/01/31 05:10:41;;;;;;;23.00;9.85;;;;;;;4.77;67.14;98130.59;4926256;28;20191;-76
2023/01/31 05:13:08;;;;;;;21.00;9.70;;;;;;;4.90;66.93;98127.34;4905528;28;20605;-77
2023/01/31 05:15:33;;;;;;;15.10;8.23;;;;;;;4.99;67.10;98122.88;4918767;28;20244;-76
2023/01/31 05:18:01;;;;;;;21.45;9.30;;;;;;;4.90;67.39;98119.63;4934914;28;20191;-76
2023/01/31 05:20:29;;;;;;;23.30;9.65;;;;;;;4.73;67.11;98107.91;4937309;28;20299;-77
2023/01/31 05:22:55;;;;;;;21.73;9.20;;;;;;;4.60;67.94;98111.97;4942732;28;20673;-76
2023/01/31 05:25:20;;;;;;;20.48;9.38;;;;;;;4.73;67.33;98106.16;4928075;28;20219;-76
2023/01/31 05:27:46;;;;;;;19.50;8.57;;;;;;;4.71;66.98;98105.50;4928224;28;20191;-76
2023/01/31 05:30:11;;;;;;;18.75;9.23;;;;;;;4.84;67.31;98112.59;4927034;28;20236;-77
2023/01/31 05:32:38;;;;;;;16.98;7.95;;;;;;;4.80;67.05;98116.53;4914810;28;20701;-76
2023/01/31 05:35:04;;;;;;;21.67;8.70;;;;;;;4.73;66.98;98121.63;4946853;28;20633;-76
2023/01/31 05:37:30;;;;;;;19.50;8.70;;;;;;;4.69;67.20;98128.94;4924828;28;20176;-76
2023/01/31 05:39:55;;;;;;;21.88;8.35;;;;;;;4.58;67.58;98138.94;4924486;28;20222;-76
2023/01/31 05:42:21;;;;;;;13.85;7.07;;;;;;;4.73;67.34;98144.03;4935771;28;20716;-76
2023/01/31 05:44:46;;;;;;;19.88;8.40;;;;;;;4.81;66.49;98141.34;4947308;28;20190;-76
2023/01/31 05:47:11;;;;;;;20.67;9.23;;;;;;;4.61;67.89;98128.22;4909847;28;20287;-76
2023/01/31 05:49:37;;;;;;;20.13;7.72;;;;;;;4.69;66.74;98141.00;4914235;28;20177;-76
2023/01/31 05:52:02;;;;;;;17.75;8.10;;;;;;;4.66;66.46;98131.88;4946081;28;20240;-76
2023/01/31 05:54:27;;;;;;;18.83;7.70;;;;;;;4.55;67.23;98131.53;4936318;28;20191;-77
2023/01/31 05:56:53;;;;;;;22.02;8.60;;;;;;;4.48;67.56;98140.00;4927074;28;20184;-77
2023/01/31 05:59:18;;;;;;;18.80;8.30;;;;;;;4.72;66.99;98147.59;4918466;28;20288;-76
2023/01/31 06:01:43;;;;;;;18.20;8.85;;;;;;;4.75;67.54;98139.50;4924319;28;20267;-76
2023/01/31 06:04:09;;;;;;;18.05;8.43;;;;;;;4.73;67.52;98137.09;4930447;28;20633;-76
2023/01/31 06:06:34;;;;;;;18.77;8.20;;;;;;;4.80;67.55;98142.34;4929599;28;20495;-77
2023/01/31 06:09:00;;;;;;;18.83;8.18;;;;;;;4.71;67.54;98148.56;4924053;28;20249;-76
2023/01/31 06:11:25;;;;;;;22.10;9.88;;;;;;;4.44;68.37;98143.94;4923922;28;20232;-76
2023/01/31 06:13:51;;;;;;;22.40;9.23;;;;;;;4.48;67.87;98145.16;4941058;28;20192;-76
2023/01/31 06:16:16;;;;;;;19.35;8.55;;;;;;;4.45;68.34;98140.34;4938548;28;20280;-76
2023/01/31 06:18:41;;;;;;;28.25;8.93;;;;;;;4.37;68.49;98145.63;4928100;28;20196;-76
2023/01/31 06:21:07;;;;;;;19.75;8.18;;;;;;;4.54;68.67;98153.16;4930178;28;20713;-76
2023/01/31 06:23:35;;;;;;;18.52;8.25;;;;;;;4.41;68.83;98139.13;4941734;28;20250;-77
2023/01/31 06:26:00;;;;;;;19.05;8.77;;;;;;;4.60;68.22;98140.34;4941527;28;20641;-77
2023/01/31 06:28:26;;;;;;;19.70;7.57;;;;;;;4.62;67.90;98140.94;4915973;28;20108;-76
2023/01/31 06:30:51;;;;;;;19.52;9.40;;;;;;;4.62;67.87;98138.38;4934485;28;20297;-76
2023/01/31 06:33:17;;;;;;;19.58;8.95;;;;;;;4.82;67.42;98145.53;4941448;28;20273;-76
2023/01/31 06:35:42;;;;;;;19.60;7.85;;;;;;;4.56;67.95;98133.94;4900861;28;20239;-77
2023/01/31 06:38:07;;;;;;;20.25;7.85;;;;;;;4.40;68.35;98131.56;4903775;28;20192;-76
2023/01/31 06:40:34;;;;;;;15.68;7.40;;;;;;;4.56;68.54;98136.53;4931768;28;20645;-76
2023/01/31 06:43:00;;;;;;;16.77;7.20;;;;;;;4.71;67.75;98133.09;4910595;28;20606;-76
2023/01/31 06:45:25;;;;;;;21.60;7.88;;;;;;;4.71;66.95;98125.34;4915283;28;20308;-77
2023/01/31 06:47:51;;;;;;;21.17;6.40;;;;;;;4.40;68.77;98127.19;4929458;28;20077;-76
2023/01/31 06:50:16;;;;;;;20.48;7.82;;;;;;;4.72;68.03;98134.72;4910052;28;20196;-76
2023/01/31 06:52:42;;;;;;;28.63;8.38;;;;;;;4.73;67.53;98128.53;4924771;28;20163;-76
2023/01/31 06:55:07;;;;;;;16.10;7.15;;;;;;;4.93;67.54;98126.19;4938906;28;20241;-76
2023/01/31 06:57:33;;;;;;;22.73;8.23;;;;;;;4.64;67.79;98131.25;4944494;28;20323;-76
2023/01/31 06:59:58;;;;;;;23.42;8.23;;;;;;;4.78;68.27;98134.78;4928562;28;20207;-76
2023/01/31 07:02:24;;;;;;;54.47;11.02;;;;;;;4.56;68.63;98146.84;4910610;28;20204;-76
2023/01/31 07:04:50;;;;;;;77.85;13.73;;;;;;;4.65;67.68;98142.38;4918328;28;20185;-76
2023/01/31 07:07:15;;;;;;;15.23;6.43;;;;;;;4.76;68.00;98141.09;4939066;28;20213;-76
2023/01/31 07:09:41;;;;;;;24.77;6.72;;;;;;;4.66;68.55;98137.03;4928608;28;20690;-76
2023/01/31 07:12:06;;;;;;;19.10;7.20;;;;;;;4.85;67.76;98148.53;4936545;28;20282;-76
2023/01/31 07:14:32;;;;;;;21.10;6.43;;;;;;;4.75;68.07;98150.63;4940849;28;20276;-77
2023/01/31 07:16:57;;;;;;;13.50;6.95;;;;;;;4.81;68.28;98156.81;4940122;28;20204;-77
2023/01/31 07:19:22;;;;;;;13.35;6.15;;;;;;;4.84;68.13;98146.94;4946222;28;20259;-76
2023/01/31 07:21:48;;;;;;;12.85;6.93;;;;;;;4.93;67.14;98145.03;4944039;28;20311;-76
2023/01/31 07:24:14;;;;;;;42.65;10.00;;;;;;;4.67;67.66;98138.63;4906487;28;20169;-77
2023/01/31 07:26:40;;;;;;;18.52;7.00;;;;;;;4.77;68.24;98148.66;4902848;28;20654;-76
2023/01/31 07:29:05;;;;;;;16.95;6.53;;;;;;;4.81;67.74;98149.88;4931680;28;20215;-77
2023/01/31 07:31:30;;;;;;;22.75;6.43;;;;;;;4.81;68.60;98143.91;4908890;28;20139;-76
2023/01/31 07:33:56;;;;;;;46.97;8.45;;;;;;;4.78;68.57;98149.44;4937449;28;20619;-77
2023/01/31 07:36:25;;;;;;;16.33;7.43;;;;;;;4.72;67.95;98145.03;4919828;28;20730;-77
2023/01/31 07:38:55;;;;;;;19.45;7.38;;;;;;;4.85;68.44;98155.50;4907591;28;20190;-77
2023/01/31 07:41:21;;;;;;;15.35;7.50;;;;;;;4.56;68.32;98157.16;4924265;28;20215;-76
2023/01/31 07:43:46;;;;;;;17.30;7.57;;;;;;;4.82;67.52;98156.63;4935688;28;20079;-76
2023/01/31 07:46:11;;;;;;;16.75;7.72;;;;;;;4.86;67.67;98147.53;4913702;28;20182;-76
2023/01/31 07:48:37;;;;;;;17.35;6.88;;;;;;;4.86;68.28;98144.97;4934178;28;20245;-77
2023/01/31 07:51:03;;;;;;;17.85;7.38;;;;;;;4.89;68.23;98146.38;4940037;28;20201;-76
2023/01/31 07:53:30;;;;;;;21.98;7.20;;;;;;;4.79;68.52;98140.72;4929432;28;20195;-76
2023/01/31 07:56:05;;;;;;;20.67;7.63;;;;;;;4.99;68.40;98140.94;4926167;28;20149;-76
2023/01/31 07:58:30;;;;;;;22.63;8.95;;;;;;;4.68;68.71;98145.38;4911557;28;20199;-77
2023/01/31 08:03:40;;;;;;;21.77;9.10;;;;;;;5.05;68.39;98147.91;4921578;28;20290;-76
2023/01/31 08:06:08;;;;;;;25.55;8.70;;;;;;;4.98;68.15;98155.59;4919696;28;20435;-78
2023/01/31 08:08:34;;;;;;;23.92;9.45;;;;;;;4.91;68.25;98153.94;4924039;28;20657;-78
2023/01/31 08:11:00;;;;;;;22.15;9.05;;;;;;;4.98;68.27;98155.59;4917278;28;20201;-79
2023/01/31 08:13:25;;;;;;;21.63;10.38;;;;;;;5.01;67.82;98150.06;4942903;28;20192;-78
2023/01/31 08:15:52;;;;;;;23.45;8.95;;;;;;;5.07;67.96;98159.69;4911380;28;20169;-78
2023/01/31 08:18:17;;;;;;;22.63;9.32;;;;;;;5.19;67.92;98152.25;4936171;28;20233;-78
2023/01/31 08:20:43;;;;;;;27.48;9.90;;;;;;;5.09;68.03;98156.91;4915931;28;20310;-78
2023/01/31 08:23:08;;;;;;;24.08;10.02;;;;;;;5.09;68.31;98156.91;4945199;28;20394;-78
2023/01/31 08:25:35;;;;;;;26.08;10.65;;;;;;;5.17;68.12;98159.34;4943984;28;20270;-78
2023/01/31 08:28:00;;;;;;;22.98;9.90;;;;;;;4.98;69.03;98163.34;4914265;28;20158;-78
2023/01/31 08:30:26;;;;;;;27.40;11.02;;;;;;;5.05;68.89;98155.66;4931334;28;20282;-78
2023/01/31 08:32:52;;;;;;;28.25;11.18;;;;;;;5.07;68.70;98154.50;4915737;28;20269;-78
2023/01/31 08:35:17;;;;;;;29.33;11.68;;;;;;;5.17;68.01;98159.34;4946399;28;20101;-78
2023/01/31 08:37:42;;;;;;;29.50;10.63;;;;;;;5.18;68.78;98152.41;4927870;28;20195;-78
2023/01/31 08:40:08;;;;;;;29.92;11.07;;;;;;;5.10;68.14;98152.53;4936551;28;20287;-78
2023/01/31 08:42:34;;;;;;;26.85;10.68;;;;;;;5.01;69.26;98165.56;4944309;28;20277;-78
2023/01/31 08:44:59;;;;;;;25.65;11.27;;;;;;;4.93;68.74;98165.69;4947918;28;20665;-77
2023/01/31 08:47:24;;;;;;;29.50;10.93;;;;;;;5.10;69.24;98162.88;4948912;28;20243;-78
2023/01/31 08:49:49;;;;;;;24.00;11.27;;;;;;;5.14;68.62;98170.06;4946032;28;20370;-78
2023/01/31 08:52:15;;;;;;;30.27;10.55;;;;;;;5.11;68.70;98162.69;4946918;28;20211;-79
2023/01/31 08:54:40;;;;;;;26.88;11.50;;;;;;;5.18;68.64;98160.97;4950544;28;20211;-78
2023/01/31 08:57:05;;;;;;;29.33;10.77;;;;;;;5.25;68.69;98163.59;4929820;28;20207;-79
2023/01/31 08:59:31;;;;;;;25.98;10.05;;;;;;;5.11;69.07;98169.63;4914432;28;20304;-78
2023/01/31 09:01:56;;;;;;;25.05;11.05;;;;;;;5.26;68.29;98160.03;4919606;28;20289;-77
2023/01/31 09:04:22;;;;;;;27.05;10.60;;;;;;;5.15;67.99;98160.53;4935380;28;20196;-77
2023/01/31 09:06:48;;;;;;;27.15;10.63;;;;;;;4.97;69.18;98172.09;4897772;28;20286;-75
2023/01/31 09:09:14;;;;;;;28.52;10.23;;;;;;;5.18;68.71;98171.28;4927937;28;20177;-77
2023/01/31 09:11:39;;;;;;;27.63;9.98;;;;;;;5.07;68.82;98170.00;4922994;28;20267;-77
2023/01/31 09:14:05;;;;;;;27.88;10.70;;;;;;;5.23;68.44;98168.16;4925372;28;20129;-76
2023/01/31 09:16:30;;;;;;;27.70;10.95;;;;;;;5.19;68.00;98165.16;4924380;28;20255;-82
2023/01/31 09:18:56;;;;;;;28.77;10.95;;;;;;;4.94;69.97;98175.03;4944081;28;20492;-75
2023/01/31 09:21:23;;;;;;;27.00;10.98;;;;;;;5.14;69.18;98177.81;4928564;28;20330;-76
2023/01/31 09:23:54;;;;;;;25.48;10.30;;;;;;;5.27;68.55;98177.13;4908725;28;20913;-77
2023/01/31 09:26:19;;;;;;;31.05;10.82;;;;;;;5.21;68.85;98170.91;4912446;28;20038;-78
2023/01/31 09:28:45;;;;;;;24.77;10.07;;;;;;;5.33;68.21;98173.81;4942746;28;20649;-78
2023/01/31 09:31:13;;;;;;;28.63;11.38;;;;;;;5.07;69.60;98169.19;4914837;28;20724;-77
2023/01/31 09:33:39;;;;;;;26.48;12.00;;;;;;;5.41;68.08;98181.41;4913831;28;20632;-77
2023/01/31 09:36:08;;;;;;;23.08;10.52;;;;;;;5.55;67.88;98176.34;4922899;28;20265;-78
2023/01/31 09:38:34;;;;;;;25.00;10.65;;;;;;;5.54;67.49;98182.53;4931945;28;20702;-77
2023/01/31 09:41:04;;;;;;;26.83;11.00;;;;;;;5.17;68.83;98174.03;4917335;28;20599;-78
2023/01/31 09:43:41;;;;;;;25.42;11.15;;;;;;;5.56;68.09;98178.75;4933446;28;20675;-77
2023/01/31 09:46:12;;;;;;;28.65;10.43;;;;;;;5.40;68.51;98173.88;4935760;28;20704;-78
2023/01/31 09:48:39;;;;;;;23.70;10.57;;;;;;;5.37;68.44;98169.06;4933780;28;20034;-77
2023/01/31 09:51:04;;;;;;;26.50;10.80;;;;;;;5.32;68.30;98176.56;4949096;28;20601;-78
2023/01/31 09:53:36;;;;;;;20.70;10.27;;;;;;;5.56;68.21;98162.47;4936712;28;20021;-77
2023/01/31 09:56:27;;;;;;;29.50;12.10;;;;;;;5.64;67.53;98175.25;4935392;28;20860;-77
2023/01/31 09:59:11;;;;;;;32.42;10.93;;;;;;;5.79;67.49;98181.13;4936944;28;20704;-78
2023/01/31 10:01:38;;;;;;;25.52;11.15;;;;;;;5.41;68.01;98176.25;4911593;28;20013;-78
2023/01/31 10:04:15;;;;;;;27.13;11.93;;;;;;;5.63;68.05;98183.97;4905855;28;20092;-77
2023/01/31 10:07:15;;;;;;;28.27;10.93;;;;;;;5.66;67.88;98182.81;4947008;28;20820;-77
2023/01/31 10:09:43;;;;;;;24.50;9.60;;;;;;;5.56;67.85;98178.75;4947176;28;20034;-77
2023/01/31 10:12:16;;;;;;;25.13;10.90;;;;;;;5.66;67.25;98175.84;4946787;28;20806;-77
2023/01/31 10:14:49;;;;;;;20.25;10.07;;;;;;;5.63;67.13;98171.84;4946120;28;20025;-78
2023/01/31 10:17:28;;;;;;;26.33;10.55;;;;;;;5.67;67.50;98172.25;4911468;28;20124;-77
2023/01/31 10:20:00;;;;;;;28.60;10.93;;;;;;;5.64;68.02;98172.66;4932669;28;20379;-78
2023/01/31 10:22:39;;;;;;;22.90;11.07;;;;;;;5.68;68.28;98171.28;4952394;28;20465;-77
2023/01/31 10:25:07;;;;;;;27.13;9.55;;;;;;;5.76;67.90;98158.22;4951478;28;20033;-77
2023/01/31 10:27:47;;;;;;;26.75;11.65;;;;;;;5.50;67.43;98152.88;4950691;28;20128;-78
2023/01/31 10:30:19;;;;;;;26.77;10.35;;;;;;;5.53;69.01;98144.75;4934701;28;20096;-78
2023/01/31 10:32:47;;;;;;;26.25;10.35;;;;;;;5.14;69.48;98146.84;4919592;28;20061;-78
2023/01/31 10:35:30;;;;;;;27.90;9.65;;;;;;;5.43;69.37;98153.63;4943184;28;20586;-77
2023/01/31 10:38:04;;;;;;;26.92;9.57;;;;;;;5.61;68.44;98157.53;4911266;28;20474;-77
2023/01/31 10:40:35;;;;;;;33.70;12.07;;;;;;;5.15;69.82;98151.00;4927156;28;21051;-77
2023/01/31 10:43:13;;;;;;;20.73;9.30;;;;;;;5.72;68.82;98159.59;4913217;28;20040;-77
2023/01/31 10:45:39;;;;;;;26.05;10.23;;;;;;;5.30;69.20;98147.56;4934465;28;20056;-77
2023/01/31 10:48:15;;;;;;;27.33;10.13;;;;;;;5.50;69.29;98143.34;4934706;28;20163;-77
2023/01/31 10:51:05;;;;;;;22.23;10.82;;;;;;;5.49;68.94;98120.28;4941143;28;20147;-78
2023/01/31 10:53:40;;;;;;;26.88;9.07;;;;;;;5.75;68.96;98125.63;4918687;28;20034;-77
2023/01/31 10:56:20;;;;;;;25.85;10.52;;;;;;;5.83;67.41;98122.09;4947823;28;20820;-77
2023/01/31 10:58:46;;;;;;;24.05;9.50;;;;;;;5.62;68.58;98117.78;4950288;28;20700;-77
2023/01/31 11:01:13;;;;;;;22.83;10.50;;;;;;;5.78;67.42;98112.31;4913933;28;20038;-77
2023/01/31 11:03:40;;;;;;;27.30;10.38;;;;;;;5.70;68.94;98102.13;4915745;28;20660;-78
2023/01/31 11:06:05;;;;;;;30.38;10.63;;;;;;;5.79;68.51;98095.03;4931012;28;20041;-77
2023/01/31 11:08:44;;;;;;;19.95;8.23;;;;;;;5.92;68.34;98096.91;4948558;28;20052;-77
2023/01/31 11:11:18;;;;;;;26.58;8.77;;;;;;;6.05;67.99;98094.41;4949962;28;20082;-78
2023/01/31 11:14:04;;;;;;;22.23;10.05;;;;;;;6.26;67.23;98084.94;4918448;28;20235;-77
2023/01/31 11:16:33;;;;;;;22.60;10.45;;;;;;;5.89;67.98;98079.19;4949875;28;20101;-77
2023/01/31 11:19:01;;;;;;;19.00;8.88;;;;;;;6.03;67.25;98086.03;4928813;28;20770;-78
2023/01/31 11:21:32;;;;;;;23.08;8.57;;;;;;;6.11;67.48;98064.41;4928469;28;20087;-77
2023/01/31 11:24:02;;;;;;;15.48;8.48;;;;;;;6.11;67.45;98044.50;4934620;28;20607;-77
2023/01/31 11:26:58;;;;;;;17.73;8.52;;;;;;;6.46;65.96;98034.06;4914478;28;20669;-76
2023/01/31 11:29:29;;;;;;;19.85;8.88;;;;;;;6.07;68.03;98034.75;4927234;28;20268;-75
2023/01/31 11:31:56;;;;;;;14.63;7.80;;;;;;;6.04;67.60;98035.13;4909010;28;20305;-76
2023/01/31 11:34:21;;;;;;;15.05;7.05;;;;;;;6.27;66.51;98039.97;4920226;28;20688;-76
2023/01/31 11:36:46;;;;;;;15.20;7.90;;;;;;;6.33;66.10;98049.56;4944373;28;20212;-76
2023/01/31 11:39:33;;;;;;;19.13;8.52;;;;;;;5.98;66.56;98057.38;4916969;28;20221;-76
2023/01/31 11:42:06;;;;;;;16.20;7.38;;;;;;;6.32;66.15;98058.28;4944714;28;20211;-76
2023/01/31 11:44:31;;;;;;;16.52;6.88;;;;;;;6.25;66.12;98063.44;4937884;28;20235;-76